Latest Weather Observations for Yanakie

IDV60801

Issued at 12:05 pm EST Monday 21 April 2014 (issued every 30 minutes, with the page automatically refreshed every 10 minutes)

About weather observations | Map of weather stations | Latest weather observations for VIC | Other Formats
Station Details ID: 085301 Name: YANAKIE Lat: -38.81 Lon: 146.19 Height: 13.3 m
Data from the previous 72 hours. | See also: Recent months for locations in Victoria
Date/Time
EST
Temp
°C
App
Temp
°C
Dew
Point
Rel
Hum
%
Delta-T
°C
Wind Press
QNH
hPa
Press
MSL
hPa
Rain
since 9 am
mm
Dir
 
Spd
km/h
Gust
km/h
Spd
kts
Gust
kts
21/12:00pm 18.5 15.0 8.7 53 5.1 NNW 17 30 9 16 1016.7 1016.7 0.0
21/11:30am 17.5 14.3 8.6 56 4.6 NNW 15 24 8 13 1017.0 - 0.0
21/11:00am 17.8 14.1 8.1 53 4.9 NNW 17 26 9 14 1017.5 1017.5 0.0
21/10:30am 17.2 13.0 7.3 52 5.0 NNW 19 28 10 15 1017.8 - 0.0
21/10:00am 18.1 14.7 7.8 51 5.2 N 15 26 8 14 1018.1 1018.1 0.0
21/09:30am 17.0 15.2 7.9 55 4.6 NNE 7 13 4 7 1018.3 - 0.0
21/09:00am 15.3 13.6 7.6 60 3.8 NNE 6 9 3 5 1018.3 1018.3 0.0
21/08:30am 15.2 12.9 7.5 60 3.8 N 9 15 5 8 1018.6 - 0.0
21/08:00am 13.6 11.9 7.6 67 2.9 N 6 9 3 5 1018.4 1018.4 0.0
21/07:30am 12.4 10.3 6.5 67 2.8 N 7 11 4 6 1018.4 - 0.0
21/07:00am 12.4 9.9 6.7 68 2.7 NNW 9 17 5 9 1018.1 1018.1 0.0
21/06:30am 11.4 8.5 6.5 72 2.3 NNW 11 13 6 7 1018.0 - 0.0
21/06:00am 11.5 8.7 6.8 73 2.2 NNW 11 15 6 8 1017.8 1017.8 0.0
21/05:30am 9.5 7.6 6.8 83 1.3 NW 6 9 3 5 1017.6 - 0.0
21/05:00am 8.9 8.0 6.2 83 1.2 CALM 0 0 0 0 1017.5 1017.5 0.0
21/04:30am 9.1 8.3 6.7 85 1.1 CALM 0 4 0 2 1017.4 - 0.0
21/04:00am 8.8 7.6 6.4 85 1.1 N 2 6 1 3 1017.3 1017.3 0.0
21/03:30am 8.0 6.6 5.3 83 1.2 N 2 4 1 2 1017.0 - 0.0
21/03:00am 8.6 7.7 6.1 84 1.1 CALM 0 0 0 0 1016.9 1016.9 0.0
21/02:30am 9.3 8.6 6.9 85 1.1 CALM 0 0 0 0 1017.1 - 0.0
21/02:00am 8.5 7.7 6.3 86 1.0 CALM 0 4 0 2 1017.2 1017.2 0.0
21/01:30am 8.4 6.8 6.4 87 0.9 S 4 7 2 4 1017.2 - 0.0
21/01:00am 8.4 7.6 6.4 87 0.9 CALM 0 0 0 0 1017.3 1017.3 0.0
21/12:30am 8.2 6.5 6.0 86 1.0 SSW 4 6 2 3 1017.2 - 0.0
21/12:00am 8.6 7.0 6.2 85 1.1 W 4 6 2 3 1017.1 1017.1 0.0
 
Date/Time
EST
Temp
°C
App
Temp
°C
Dew
Point
Rel
Hum
%
Delta-T
°C
Wind Press
QNH
hPa
Press
MSL
hPa
Rain
since 9 am
mm
Dir
 
Spd
km/h
Gust
km/h
Spd
kts
Gust
kts
20/11:30pm 8.5 6.7 5.6 82 1.3 WSW 4 6 2 3 1017.4 - 0.0
20/11:00pm 9.5 7.4 5.7 77 1.7 NW 6 7 3 4 1017.3 1017.3 0.0
20/10:30pm 10.9 8.4 6.6 75 2.0 WNW 9 11 5 6 1017.5 - 0.0
20/10:00pm 11.9 10.0 7.6 75 2.1 W 7 11 4 6 1017.6 1017.6 0.0
20/09:30pm 11.3 8.9 7.0 75 2.0 NW 9 11 5 6 1017.5 - 0.0
20/09:00pm 12.3 10.0 7.6 73 2.3 NW 9 11 5 6 1017.3 1017.3 0.0
20/08:30pm 13.0 10.9 8.1 72 2.4 NW 9 13 5 7 1017.2 - 0.0
20/08:00pm 13.3 11.2 8.2 71 2.5 NW 9 11 5 6 1017.0 1017.0 0.0
20/07:30pm 13.3 11.2 8.4 72 2.4 N 9 13 5 7 1016.8 - 0.0
20/07:00pm 13.2 11.7 8.5 73 2.3 N 6 7 3 4 1016.5 1016.5 0.0
20/06:30pm 13.6 12.1 8.4 71 2.6 WNW 6 7 3 4 1016.4 - 0.0
20/06:00pm 14.4 12.4 8.6 68 2.9 WNW 9 13 5 7 1016.1 1016.1 0.0
20/05:30pm 15.1 12.6 8.3 64 3.4 WNW 11 17 6 9 1015.9 - 0.0
20/05:00pm 15.6 12.6 7.9 60 3.9 W 13 20 7 11 1015.6 1015.6 0.0
20/04:30pm 16.9 13.6 8.1 56 4.5 W 15 22 8 12 1015.5 - 0.0
20/04:00pm 17.1 12.7 8.8 58 4.3 W 22 30 12 16 1015.4 1015.4 0.0
20/03:30pm 16.7 11.8 8.4 58 4.2 W 24 33 13 18 1015.4 - 0.0
20/03:00pm 17.1 11.1 8.5 57 4.4 W 30 37 16 20 1015.3 1015.3 0.0
20/02:30pm 17.4 11.0 8.5 56 4.6 W 32 41 17 22 1015.1 - 0.0
20/02:00pm 17.0 10.7 7.6 54 4.7 W 30 43 16 23 1015.0 1015.0 0.0
20/01:30pm 16.9 11.3 7.3 53 4.8 W 26 35 14 19 1015.2 - 0.0
20/01:00pm 16.0 11.2 7.2 56 4.4 W 22 35 12 19 1015.4 1015.4 0.0
20/12:30pm 15.0 8.7 7.3 60 3.8 W 30 39 16 21 1015.9 - 0.0
20/12:00pm 15.2 10.0 8.7 65 3.3 WNW 26 35 14 19 1016.1 1016.1 0.0
20/11:30am 15.0 9.9 9.1 68 3.0 NW 26 35 14 19 1016.3 - 0.0
20/11:00am 15.9 10.4 9.3 65 3.4 NW 28 41 15 22 1016.4 1016.4 0.0
20/10:30am 16.2 11.2 9.6 65 3.4 NW 26 35 14 19 1016.4 - 0.0
20/10:00am 13.6 9.6 9.1 74 2.3 NW 20 28 11 15 1016.6 1016.6 0.0
20/09:30am 13.4 9.6 9.1 75 2.2 NW 19 28 10 15 1016.8 - 0.0
20/09:00am 13.3 10.0 9.5 78 1.9 NW 17 24 9 13 1016.8 1016.8 2.8
20/08:30am 12.6 9.6 9.2 80 1.7 NW 15 22 8 12 1016.7 - 2.8
20/08:00am 12.3 8.9 9.1 81 1.6 NNW 17 24 9 13 1016.5 1016.5 2.8
20/07:30am 12.0 8.9 8.7 80 1.6 NW 15 20 8 11 1016.4 - 2.8
20/07:00am 12.1 8.8 8.2 77 1.9 NW 15 22 8 12 1016.1 1016.1 2.8
20/06:30am 12.3 7.7 8.2 76 2.0 NW 22 32 12 17 1015.9 - 2.8
20/06:00am 12.2 8.9 8.1 76 2.0 NNW 15 20 8 11 1015.8 1015.8 2.8
20/05:30am 12.3 8.7 8.2 76 2.0 NW 17 24 9 13 1015.6 - 2.8
20/05:00am 12.2 8.2 8.3 77 1.9 NW 19 22 10 12 1015.6 1015.6 2.8
20/04:30am 12.1 8.8 8.2 77 1.9 NNW 15 20 8 11 1015.7 - 2.8
20/04:00am 12.1 9.3 8.4 78 1.8 NNW 13 20 7 11 1015.7 1015.7 2.8
20/03:30am 12.0 9.2 8.5 79 1.7 NNW 13 17 7 9 1015.6 - 2.8
20/03:00am 11.7 9.7 8.7 82 1.5 NNW 9 13 5 7 1015.8 1015.8 2.8
20/02:30am 12.1 9.3 8.6 79 1.7 NNW 13 19 7 10 1015.9 - 2.8
20/02:00am 11.9 8.8 8.7 81 1.6 NNW 15 20 8 11 1016.2 1016.2 2.8
20/01:30am 11.8 9.1 8.8 82 1.5 NNW 13 17 7 9 1016.4 - 2.8
20/01:00am 11.7 9.1 9.3 85 1.2 NNW 13 19 7 10 1016.5 1016.5 2.8
20/12:30am 11.1 9.8 9.2 88 0.9 N 6 7 3 4 1016.6 - 2.8
20/12:00am 10.9 9.0 9.2 89 0.8 NNW 9 13 5 7 1016.9 1016.9 2.8
 
Date/Time
EST
Temp
°C
App
Temp
°C
Dew
Point
Rel
Hum
%
Delta-T
°C
Wind Press
QNH
hPa
Press
MSL
hPa
Rain
since 9 am
mm
Dir
 
Spd
km/h
Gust
km/h
Spd
kts
Gust
kts
19/11:30pm 10.7 9.2 9.1 90 0.8 N 7 11 4 6 1017.1 - 2.8
19/11:00pm 10.9 9.4 9.3 90 0.8 N 7 9 4 5 1017.3 1017.3 2.8
19/10:30pm 10.9 9.0 9.2 89 0.8 NNW 9 13 5 7 1017.5 - 2.8
19/10:00pm 11.2 8.5 9.1 87 1.0 NW 13 17 7 9 1017.7 1017.7 2.8
19/09:30pm 11.3 7.9 9.0 86 1.1 NW 17 24 9 13 1017.9 - 2.8
19/09:00pm 11.4 9.5 9.1 86 1.1 NW 9 11 5 6 1018.0 1018.0 2.8
19/08:30pm 11.6 10.2 9.5 87 1.1 WNW 7 11 4 6 1018.0 - 2.8
19/08:00pm 11.2 9.4 9.3 88 0.9 WNW 9 13 5 7 1018.1 1018.1 2.8
19/07:30pm 11.5 10.1 9.4 87 1.1 W 7 11 4 6 1018.1 - 2.8
19/07:00pm 9.9 7.6 7.5 85 1.1 WNW 9 11 5 6 1018.1 1018.1 2.8
19/06:30pm 9.9 7.5 7.0 82 1.4 NW 9 11 5 6 1017.9 - 2.8
19/06:00pm 11.3 8.9 7.2 76 2.0 WNW 9 13 5 7 1017.8 1017.8 2.8
19/05:30pm 13.3 10.0 8.0 70 2.6 WSW 15 20 8 11 1017.7 - 2.8
19/05:00pm 14.1 10.2 8.7 70 2.7 WSW 19 24 10 13 1017.7 1017.7 2.8
19/04:30pm 13.8 9.6 8.4 70 2.7 WSW 20 30 11 16 1017.6 - 2.8
19/04:00pm 13.5 9.5 9.0 74 2.3 SW 20 30 11 16 1017.8 1017.8 2.8
19/03:30pm 14.9 11.2 9.3 69 2.9 WSW 19 28 10 15 1017.7 - 2.8
19/03:00pm 14.3 10.3 8.9 70 2.7 WSW 20 26 11 14 1017.8 1017.8 2.8
19/02:30pm 14.4 10.4 9.2 71 2.7 WSW 20 28 11 15 1017.7 - 2.8
19/02:00pm 15.2 12.5 10.2 72 2.6 SW 15 22 8 12 1017.8 1017.8 2.8
19/01:30pm 15.5 13.1 11.5 77 2.2 SW 15 24 8 13 1018.0 - 2.8
19/01:00pm 14.1 12.0 11.1 82 1.6 SW 13 20 7 11 1018.2 1018.2 2.8
19/12:30pm 14.5 12.0 12.4 87 1.1 WSW 17 24 9 13 1018.5 - 2.8
19/12:00pm 12.4 8.4 10.3 87 1.1 WSW 22 35 12 19 1018.9 1018.9 2.6
19/11:30am 13.5 11.9 11.6 88 1.0 SW 11 15 6 8 1018.9 - 1.4
19/11:00am 12.6 8.6 10.5 87 1.1 W 22 30 12 16 1019.2 1019.2 1.4
19/10:30am 12.8 10.6 10.9 88 1.0 SW 13 20 7 11 1019.1 - 1.2
19/10:00am 13.6 11.0 12.0 90 0.9 W 17 20 9 11 1019.1 1019.1 0.6
19/09:30am 11.7 8.6 10.4 92 0.7 W 17 24 9 13 1019.2 - 0.6
19/09:00am 11.7 7.5 9.6 87 1.1 W 22 30 12 16 1019.0 1019.0 3.6
19/08:30am 13.8 9.6 8.4 70 2.7 W 20 24 11 13 1018.6 - 2.0
19/08:00am 13.0 9.1 8.7 75 2.1 SW 19 22 10 12 1018.5 1018.5 2.0
19/07:30am 11.7 8.6 8.7 82 1.5 SSW 15 20 8 11 1018.2 - 2.0
19/07:00am 12.8 8.6 7.3 69 2.7 SW 19 26 10 14 1017.8 1017.8 2.0
19/06:30am 12.9 7.4 6.0 63 3.3 SW 24 33 13 18 1017.6 - 2.0
19/06:00am 12.9 7.4 7.4 69 2.7 SW 26 37 14 20 1017.6 1017.6 2.0
19/05:30am 12.6 7.0 7.1 69 2.7 SW 26 35 14 19 1017.5 - 2.0
19/05:00am 12.9 7.6 8.4 74 2.2 WSW 26 37 14 20 1017.3 1017.3 2.0
19/04:30am 12.9 8.5 7.6 70 2.6 SW 20 30 11 16 1017.1 - 2.0
19/04:00am 13.1 7.9 7.1 67 2.9 SW 24 33 13 18 1017.1 1017.1 2.0
19/03:30am 13.1 7.7 6.2 63 3.3 WSW 24 32 13 17 1017.2 - 2.0
19/03:00am 13.3 7.6 6.9 65 3.1 SW 26 35 14 19 1017.3 1017.3 2.0
19/02:30am 13.4 8.5 8.5 72 2.4 SW 24 33 13 18 1017.6 - 2.0
19/02:00am 13.1 7.9 7.3 68 2.8 WSW 24 33 13 18 1017.6 1017.6 2.0
19/01:30am 12.7 7.0 8.2 74 2.2 W 28 33 15 18 1017.8 - 2.0
19/01:00am 13.3 8.4 6.9 65 3.1 SW 22 33 12 18 1017.8 1017.8 2.0
19/12:30am 13.7 8.5 7.2 65 3.2 WSW 24 33 13 18 1017.7 - 2.0
19/12:00am 13.2 6.9 7.4 68 2.8 WSW 30 41 16 22 1017.9 1017.9 2.0
 
Date/Time
EST
Temp
°C
App
Temp
°C
Dew
Point
Rel
Hum
%
Delta-T
°C
Wind Press
QNH
hPa
Press
MSL
hPa
Rain
since 9 am
mm
Dir
 
Spd
km/h
Gust
km/h
Spd
kts
Gust
kts
18/11:30pm 13.6 7.4 7.8 68 2.9 SW 30 43 16 23 1017.8 - 2.0
18/11:00pm 13.4 7.6 8.0 70 2.7 SW 28 39 15 21 1017.9 1017.9 2.0
18/10:30pm 13.5 9.3 9.6 77 2.0 SW 22 35 12 19 1018.0 - 2.0
18/10:00pm 13.3 8.5 9.0 75 2.2 WSW 24 35 13 19 1018.1 1018.1 2.0
18/09:30pm 12.0 8.6 9.0 82 1.5 WSW 17 22 9 12 1018.2 - 2.0
18/09:00pm 13.0 6.5 8.1 72 2.4 WSW 32 46 17 25 1017.9 1017.9 2.0
18/08:30pm 13.4 6.5 8.9 74 2.3 SW 35 44 19 24 1017.7 - 2.0
18/08:00pm 12.9 8.6 9.2 78 1.9 WSW 22 30 12 16 1017.4 1017.4 2.0
18/07:30pm 12.7 7.5 9.0 78 1.9 SW 26 41 14 22 1017.3 - 1.8
18/07:03pm 12.0 5.9 8.1 77 1.9 WSW 30 48 16 26 1017.3 - 1.8
18/07:00pm 12.1 5.3 7.8 75 2.1 WSW 33 48 18 26 1017.3 1017.3 1.8
18/06:30pm 13.6 7.1 8.9 73 2.4 SW 33 54 18 29 1017.0 - 1.8
18/06:22pm 13.8 8.5 9.8 77 2.1 WSW 28 46 15 25 1017.0 - 1.8
18/06:00pm 12.8 8.0 8.7 76 2.0 WSW 24 35 13 19 1016.7 1016.7 1.8
18/05:38pm 14.5 7.9 8.5 67 3.0 WSW 33 57 18 31 1016.4 - 1.6
18/05:30pm 14.2 7.6 7.9 66 3.1 WSW 32 44 17 24 1016.2 - 1.6
18/05:10pm 14.7 8.2 8.2 65 3.3 WSW 32 52 17 28 1016.0 - 1.6
18/05:00pm 15.0 7.9 6.6 57 4.1 WSW 33 44 18 24 1015.8 1015.8 1.6
18/04:30pm 14.4 8.0 9.4 72 2.6 WSW 33 46 18 25 1015.5 - 1.6
18/04:00pm 15.4 8.1 7.4 59 4.0 WSW 35 46 19 25 1015.2 1015.2 1.6
18/03:30pm 16.6 9.4 7.5 55 4.6 WSW 35 50 19 27 1015.0 - 1.6
18/03:03pm 14.8 8.0 9.4 70 2.8 WSW 35 54 19 29 1014.8 - 1.6
18/03:00pm 15.2 8.0 9.3 68 3.0 WSW 37 54 20 29 1014.9 1014.9 1.6
18/02:59pm 15.5 8.8 9.8 69 3.0 WSW 35 54 19 29 1014.8 - 1.6
18/02:30pm 16.8 10.1 9.5 62 3.8 WSW 35 46 19 25 1014.5 - 1.6
18/02:19pm 17.2 11.9 11.2 68 3.2 WSW 30 52 16 28 1014.4 - 1.6
18/02:00pm 15.9 9.7 10.0 68 3.1 WSW 33 48 18 26 1014.2 1014.2 1.6
18/01:30pm 16.4 10.8 12.0 75 2.4 WSW 33 44 18 24 1013.9 - 1.6
18/01:00pm 14.4 8.8 12.1 86 1.2 SW 33 56 18 30 1013.8 1013.8 1.6
18/12:51pm 14.6 8.7 11.2 80 1.8 WSW 33 56 18 30 1014.1 - 1.2
18/12:30pm 14.2 8.0 11.5 84 1.4 SW 35 48 19 26 1013.7 - 1.0
18/12:18pm 14.5 9.2 12.4 87 1.1 SW 32 50 17 27 1013.6 - 1.0

Other Formats:

Comma delimited format used in spreadsheet applications
http://www.bom.gov.au/fwo/IDV60801/IDV60801.94911.axf

JavaScript Object Notation format (JSON) in row-major order
http://www.bom.gov.au/fwo/IDV60801/IDV60801.94911.json